< < Back
Terminal Aerodrome Forecast


Current Version              Previous Versions:   1  2  3  4  5  6  7  8  9  

Terminal Aerodrome Forecast

816
FTUS42 KCHS 232300
TAFSAV
TAF
KSAV 232328Z 2400/2424 19005KT P6SM SCT040 SCT250
     FM241200 25005KT P6SM SCT040 SCT150
     FM241900 23009KT P6SM VCTS SCT040CB=

Latest METAR

294
SAUS80 KWBC 242000 CCA
MTRSAV
METAR KSAV 241953Z 25010G17KT 10SM SCT050 34/21 A2992 RMK AO2 SLP132
T03440211


USA.gov is the U.S. government's official web portal to all federal, state and local government web resources and services.